sensor_id;sensor_type;location;lat;lon;timestamp;pressure;altitude;pressure_sealevel;temperature;humidity
26775;BME280;14362;51.902;7.626;2024-01-15T00:02:05;99645.91;;;0.39;92.15
26775;BME280;14362;51.902;7.626;2024-01-15T00:06:07;99638.16;;;0.37;91.72
26775;BME280;14362;51.902;7.626;2024-01-15T00:10:09;99632.13;;;0.37;91.43
26775;BME280;14362;51.902;7.626;2024-01-15T00:14:12;99630.41;;;0.32;91.41
26775;BME280;14362;51.902;7.626;2024-01-15T00:18:14;99620.03;;;0.26;91.26
26775;BME280;14362;51.902;7.626;2024-01-15T00:22:17;99607.06;;;0.17;91.27
26775;BME280;14362;51.902;7.626;2024-01-15T00:26:18;99605.31;;;0.08;91.39
26775;BME280;14362;51.902;7.626;2024-01-15T00:30:21;99596.69;;;0.02;91.83
26775;BME280;14362;51.902;7.626;2024-01-15T00:34:23;99599.25;;;-0.03;91.60
26775;BME280;14362;51.902;7.626;2024-01-15T00:38:24;99598.41;;;-0.04;92.18
26775;BME280;14362;51.902;7.626;2024-01-15T00:42:26;99594.94;;;0.01;92.34
26775;BME280;14362;51.902;7.626;2024-01-15T00:46:29;99598.38;;;0.01;91.84
26775;BME280;14362;51.902;7.626;2024-01-15T00:50:30;99588.06;;;0.10;91.80
26775;BME280;14362;51.902;7.626;2024-01-15T00:54:31;99592.38;;;0.10;92.34
26775;BME280;14362;51.902;7.626;2024-01-15T00:58:33;99586.34;;;0.14;91.97
26775;BME280;14362;51.902;7.626;2024-01-15T01:02:36;99587.22;;;0.19;91.61
26775;BME280;14362;51.902;7.626;2024-01-15T01:06:37;99588.94;;;0.23;91.74
26775;BME280;14362;51.902;7.626;2024-01-15T01:10:39;99584.63;;;0.19;92.04
26775;BME280;14362;51.902;7.626;2024-01-15T01:14:42;99579.47;;;0.16;92.02
26775;BME280;14362;51.902;7.626;2024-01-15T01:18:45;99574.28;;;0.18;92.03
26775;BME280;14362;51.902;7.626;2024-01-15T01:22:47;99579.44;;;0.19;91.45
26775;BME280;14362;51.902;7.626;2024-01-15T01:26:48;99578.59;;;0.20;91.43
26775;BME280;14362;51.902;7.626;2024-01-15T01:30:49;99567.38;;;0.16;91.86
26775;BME280;14362;51.902;7.626;2024-01-15T01:34:52;99563.94;;;0.18;91.46
26775;BME280;14362;51.902;7.626;2024-01-15T01:38:54;99561.34;;;0.16;91.34
26775;BME280;14362;51.902;7.626;2024-01-15T01:42:55;99562.19;;;0.15;91.64
26775;BME280;14362;51.902;7.626;2024-01-15T01:46:58;99562.19;;;0.13;91.78
26775;BME280;14362;51.902;7.626;2024-01-15T01:51:02;99557.00;;;0.10;91.69
26775;BME280;14362;51.902;7.626;2024-01-15T01:55:06;99556.13;;;0.13;91.82
26775;BME280;14362;51.902;7.626;2024-01-15T01:59:09;99550.97;;;0.07;91.28
26775;BME280;14362;51.902;7.626;2024-01-15T02:03:12;99549.22;;;0.03;91.40
26775;BME280;14362;51.902;7.626;2024-01-15T02:07:14;99545.78;;;-0.01;91.90
26775;BME280;14362;51.902;7.626;2024-01-15T02:11:17;99553.53;;;-0.06;91.41
26775;BME280;14362;51.902;7.626;2024-01-15T02:15:19;99545.78;;;-0.07;91.50
26775;BME280;14362;51.902;7.626;2024-01-15T02:19:20;99569.91;;;-0.08;91.88
26775;BME280;14362;51.902;7.626;2024-01-15T02:23:23;99561.28;;;-0.09;91.87
26775;BME280;14362;51.902;7.626;2024-01-15T02:27:25;99563.00;;;-0.09;91.61
26775;BME280;14362;51.902;7.626;2024-01-15T02:31:26;99561.31;;;-0.10;91.82
26775;BME280;14362;51.902;7.626;2024-01-15T02:35:27;99567.34;;;-0.04;91.71
26775;BME280;14362;51.902;7.626;2024-01-15T02:39:30;99556.13;;;-0.06;91.78
26775;BME280;14362;51.902;7.626;2024-01-15T02:43:31;99560.41;;;-0.09;91.23
26775;BME280;14362;51.902;7.626;2024-01-15T02:47:33;99563.03;;;-0.05;91.18
26775;BME280;14362;51.902;7.626;2024-01-15T02:51:34;99571.66;;;0.01;91.58
26775;BME280;14362;51.902;7.626;2024-01-15T02:55:37;99558.72;;;0.05;91.55
26775;BME280;14362;51.902;7.626;2024-01-15T02:59:38;99576.00;;;0.09;91.48
26775;BME280;14362;51.902;7.626;2024-01-15T03:03:40;99563.91;;;0.10;90.96
26775;BME280;14362;51.902;7.626;2024-01-15T03:07:41;99568.22;;;0.00;90.46
26775;BME280;14362;51.902;7.626;2024-01-15T03:11:44;99555.25;;;-0.05;91.02
26775;BME280;14362;51.902;7.626;2024-01-15T03:15:45;99553.50;;;-0.13;90.53
26775;BME280;14362;51.902;7.626;2024-01-15T03:19:47;99562.97;;;-0.19;90.84
26775;BME280;14362;51.902;7.626;2024-01-15T03:23:49;99549.19;;;-0.21;91.20
26775;BME280;14362;51.902;7.626;2024-01-15T03:27:52;99555.22;;;-0.19;91.03
26775;BME280;14362;51.902;7.626;2024-01-15T03:31:54;99553.53;;;-0.18;90.86
26775;BME280;14362;51.902;7.626;2024-01-15T03:35:55;99549.19;;;-0.14;90.76
26775;BME280;14362;51.902;7.626;2024-01-15T03:39:56;99545.72;;;-0.20;91.09
26775;BME280;14362;51.902;7.626;2024-01-15T03:43:59;99548.34;;;-0.18;91.24
26775;BME280;14362;51.902;7.626;2024-01-15T03:48:01;99556.13;;;-0.10;91.02
26775;BME280;14362;51.902;7.626;2024-01-15T03:52:03;99556.13;;;-0.07;90.62
26775;BME280;14362;51.902;7.626;2024-01-15T03:56:05;99557.00;;;-0.02;90.74
26775;BME280;14362;51.902;7.626;2024-01-15T04:00:09;99547.53;;;0.00;89.94
26775;BME280;14362;51.902;7.626;2024-01-15T04:04:10;99530.28;;;-0.03;90.36
26775;BME280;14362;51.902;7.626;2024-01-15T04:08:12;99541.44;;;-0.10;90.00
26775;BME280;14362;51.902;7.626;2024-01-15T04:12:13;99535.41;;;-0.13;90.19
26775;BME280;14362;51.902;7.626;2024-01-15T04:16:16;99531.97;;;-0.09;89.94
26775;BME280;14362;51.902;7.626;2024-01-15T04:20:17;99543.19;;;-0.06;90.04
26775;BME280;14362;51.902;7.626;2024-01-15T04:24:19;99531.13;;;-0.02;89.67
26775;BME280;14362;51.902;7.626;2024-01-15T04:28:20;99524.22;;;-0.03;90.17
26775;BME280;14362;51.902;7.626;2024-01-15T04:32:23;99516.47;;;-0.05;89.99
26775;BME280;14362;51.902;7.626;2024-01-15T04:36:24;99522.50;;;-0.03;89.94
26775;BME280;14362;51.902;7.626;2024-01-15T04:40:26;99512.16;;;0.01;89.81
26775;BME280;14362;51.902;7.626;2024-01-15T04:44:28;99521.63;;;0.08;89.70
26775;BME280;14362;51.902;7.626;2024-01-15T04:48:30;99520.81;;;0.12;89.49
26775;BME280;14362;51.902;7.626;2024-01-15T04:52:32;99520.81;;;0.12;89.61
26775;BME280;14362;51.902;7.626;2024-01-15T04:56:33;99514.75;;;0.13;89.89
26775;BME280;14362;51.902;7.626;2024-01-15T05:00:35;99513.03;;;0.16;89.88
26775;BME280;14362;51.902;7.626;2024-01-15T05:04:37;99498.34;;;0.12;89.48
26775;BME280;14362;51.902;7.626;2024-01-15T05:08:39;99499.22;;;0.10;89.42
26775;BME280;14362;51.902;7.626;2024-01-15T05:12:40;99507.00;;;0.08;89.75
26775;BME280;14362;51.902;7.626;2024-01-15T05:16:46;99494.06;;;0.14;89.55
26775;BME280;14362;51.902;7.626;2024-01-15T05:20:49;99493.19;;;0.14;89.59
26775;BME280;14362;51.902;7.626;2024-01-15T05:24:50;99493.19;;;0.23;89.77
26775;BME280;14362;51.902;7.626;2024-01-15T05:28:52;99495.78;;;0.22;90.04
26775;BME280;14362;51.902;7.626;2024-01-15T05:32:53;99493.19;;;0.23;89.91
26775;BME280;14362;51.902;7.626;2024-01-15T05:36:56;99481.09;;;0.21;89.63
26775;BME280;14362;51.902;7.626;2024-01-15T05:40:57;99483.72;;;0.22;89.62
26775;BME280;14362;51.902;7.626;2024-01-15T05:44:59;99482.84;;;0.17;89.18
26775;BME280;14362;51.902;7.626;2024-01-15T05:49:02;99481.97;;;0.20;89.07
26775;BME280;14362;51.902;7.626;2024-01-15T05:53:05;99482.81;;;0.22;89.08
26775;BME280;14362;51.902;7.626;2024-01-15T05:57:06;99489.72;;;0.26;88.47
26775;BME280;14362;51.902;7.626;2024-01-15T06:01:08;99485.41;;;0.22;88.81
26775;BME280;14362;51.902;7.626;2024-01-15T06:05:09;99491.47;;;0.18;88.86
26775;BME280;14362;51.902;7.626;2024-01-15T06:09:12;99500.09;;;0.13;89.19
26775;BME280;14362;51.902;7.626;2024-01-15T06:13:13;99483.69;;;0.11;89.47
26775;BME280;14362;51.902;7.626;2024-01-15T06:17:15;99471.63;;;0.12;88.97
26775;BME280;14362;51.902;7.626;2024-01-15T06:21:16;99485.41;;;0.12;88.97
26775;BME280;14362;51.902;7.626;2024-01-15T06:25:19;99476.81;;;0.13;89.61
26775;BME280;14362;51.902;7.626;2024-01-15T06:29:21;99481.97;;;0.10;89.01
26775;BME280;14362;51.902;7.626;2024-01-15T06:33:24;99477.66;;;0.06;89.19
26775;BME280;14362;51.902;7.626;2024-01-15T06:37:25;99475.06;;;0.08;89.70
26775;BME280;14362;51.902;7.626;2024-01-15T06:41:28;99478.53;;;0.16;89.60
26775;BME280;14362;51.902;7.626;2024-01-15T06:45:30;99482.84;;;0.12;89.21
26775;BME280;14362;51.902;7.626;2024-01-15T06:49:31;99485.41;;;0.15;90.12
26775;BME280;14362;51.902;7.626;2024-01-15T06:53:33;99482.81;;;0.15;89.49
26775;BME280;14362;51.902;7.626;2024-01-15T06:57:36;99488.88;;;0.18;89.76
26775;BME280;14362;51.902;7.626;2024-01-15T07:01:37;99483.69;;;0.18;89.66
26775;BME280;14362;51.902;7.626;2024-01-15T07:05:39;99501.81;;;0.08;89.91
26775;BME280;14362;51.902;7.626;2024-01-15T07:09:40;99506.13;;;0.03;89.80
26775;BME280;14362;51.902;7.626;2024-01-15T07:13:43;99494.91;;;-0.01;90.36
26775;BME280;14362;51.902;7.626;2024-01-15T07:17:44;99500.06;;;-0.08;90.29
26775;BME280;14362;51.902;7.626;2024-01-15T07:21:46;99499.19;;;-0.13;90.13
26775;BME280;14362;51.902;7.626;2024-01-15T07:25:47;99493.13;;;-0.17;90.82
26775;BME280;14362;51.902;7.626;2024-01-15T07:29:50;99482.78;;;-0.19;90.83
26775;BME280;14362;51.902;7.626;2024-01-15T07:33:52;99494.03;;;-0.18;90.68
26775;BME280;14362;51.902;7.626;2024-01-15T07:37:53;99499.16;;;-0.20;90.61
26775;BME280;14362;51.902;7.626;2024-01-15T07:41:55;99489.69;;;-0.14;90.89
26775;BME280;14362;51.902;7.626;2024-01-15T07:45:58;99499.19;;;-0.13;90.88
26775;BME280;14362;51.902;7.626;2024-01-15T07:49:59;99500.91;;;-0.11;90.78
26775;BME280;14362;51.902;7.626;2024-01-15T07:54:01;99500.94;;;-0.08;91.48
26775;BME280;14362;51.902;7.626;2024-01-15T07:58:03;99493.16;;;-0.03;90.83
26775;BME280;14362;51.902;7.626;2024-01-15T08:02:06;99491.44;;;-0.07;91.42
26775;BME280;14362;51.902;7.626;2024-01-15T08:06:08;99500.94;;;-0.08;91.42
26775;BME280;14362;51.902;7.626;2024-01-15T08:10:10;99483.69;;;-0.06;91.46
26775;BME280;14362;51.902;7.626;2024-01-15T08:14:13;99488.88;;;-0.01;90.92
26775;BME280;14362;51.902;7.626;2024-01-15T08:18:16;99488.88;;;-0.01;91.24
26775;BME280;14362;51.902;7.626;2024-01-15T08:22:18;99480.25;;;0.02;91.29
26775;BME280;14362;51.902;7.626;2024-01-15T08:26:19;99488.84;;;0.13;90.71
26775;BME280;14362;51.902;7.626;2024-01-15T08:30:21;99488.00;;;0.14;90.92
26775;BME280;14362;51.902;7.626;2024-01-15T08:34:28;99486.28;;;0.14;90.82
26775;BME280;14362;51.902;7.626;2024-01-15T08:38:29;99487.16;;;0.13;90.83
26775;BME280;14362;51.902;7.626;2024-01-15T08:42:30;99488.88;;;0.14;90.46
26775;BME280;14362;51.902;7.626;2024-01-15T08:46:32;99491.47;;;0.14;90.67
26775;BME280;14362;51.902;7.626;2024-01-15T08:50:34;99492.34;;;0.20;91.08
26775;BME280;14362;51.902;7.626;2024-01-15T08:54:36;99496.63;;;0.19;90.28
26775;BME280;14362;51.902;7.626;2024-01-15T08:58:37;99486.28;;;0.27;90.60
26775;BME280;14362;51.902;7.626;2024-01-15T09:02:39;99494.06;;;0.31;90.34
26775;BME280;14362;51.902;7.626;2024-01-15T09:06:42;99497.50;;;0.33;90.51
26775;BME280;14362;51.902;7.626;2024-01-15T09:10:45;99500.94;;;0.37;89.88
26775;BME280;14362;51.902;7.626;2024-01-15T09:14:47;99500.94;;;0.43;90.00
26775;BME280;14362;51.902;7.626;2024-01-15T09:18:49;99494.03;;;0.48;90.21
26775;BME280;14362;51.902;7.626;2024-01-15T09:22:52;99487.13;;;0.47;89.83
26775;BME280;14362;51.902;7.626;2024-01-15T09:26:53;99493.19;;;0.49;89.93
26775;BME280;14362;51.902;7.626;2024-01-15T09:30:55;99475.94;;;0.45;89.69
26775;BME280;14362;51.902;7.626;2024-01-15T09:34:56;99480.25;;;0.49;89.79
26775;BME280;14362;51.902;7.626;2024-01-15T09:38:59;99488.00;;;0.48;89.15
26775;BME280;14362;51.902;7.626;2024-01-15T09:43:01;99497.50;;;0.46;89.93
26775;BME280;14362;51.902;7.626;2024-01-15T09:47:04;99491.47;;;0.47;89.30
26775;BME280;14362;51.902;7.626;2024-01-15T09:51:06;99500.06;;;0.47;89.67
26775;BME280;14362;51.902;7.626;2024-01-15T09:55:09;99508.72;;;0.49;89.39
26775;BME280;14362;51.902;7.626;2024-01-15T09:59:14;99515.63;;;0.60;89.40
26775;BME280;14362;51.902;7.626;2024-01-15T10:03:16;99515.63;;;0.61;89.36
26775;BME280;14362;51.902;7.626;2024-01-15T10:07:18;99508.72;;;0.59;88.71
26775;BME280;14362;51.902;7.626;2024-01-15T10:11:21;99509.59;;;0.55;89.24
26775;BME280;14362;51.902;7.626;2024-01-15T10:15:22;99498.34;;;0.59;88.92
26775;BME280;14362;51.902;7.626;2024-01-15T10:19:26;99499.16;;;0.76;89.19
26775;BME280;14362;51.902;7.626;2024-01-15T10:23:28;99487.94;;;0.85;88.14
26775;BME280;14362;51.902;7.626;2024-01-15T10:27:31;99482.75;;;0.79;87.71
26775;BME280;14362;51.902;7.626;2024-01-15T10:31:32;99481.06;;;0.72;88.23
26775;BME280;14362;51.902;7.626;2024-01-15T10:35:34;99462.91;;;0.78;87.94
26775;BME280;14362;51.902;7.626;2024-01-15T10:39:36;99468.09;;;0.78;87.77
26775;BME280;14362;51.902;7.626;2024-01-15T10:43:39;99481.03;;;0.82;87.33
26775;BME280;14362;51.902;7.626;2024-01-15T10:47:42;99470.63;;;0.92;87.04
26775;BME280;14362;51.902;7.626;2024-01-15T10:51:44;99481.00;;;0.90;87.03
26775;BME280;14362;51.902;7.626;2024-01-15T10:55:46;99477.56;;;0.91;86.50
26775;BME280;14362;51.902;7.626;2024-01-15T10:59:50;99482.72;;;0.99;85.58
26775;BME280;14362;51.902;7.626;2024-01-15T11:03:52;99473.19;;;1.04;86.08
26775;BME280;14362;51.902;7.626;2024-01-15T11:07:58;99479.22;;;1.05;85.42
26775;BME280;14362;51.902;7.626;2024-01-15T11:12:07;99474.88;;;1.21;85.72
26775;BME280;14362;51.902;7.626;2024-01-15T11:16:11;99471.44;;;1.05;85.26
26775;BME280;14362;51.902;7.626;2024-01-15T11:20:13;99474.06;;;1.06;85.43
26775;BME280;14362;51.902;7.626;2024-01-15T11:24:36;99473.19;;;1.04;85.50
26775;BME280;14362;51.902;7.626;2024-01-15T11:28:47;99470.63;;;0.98;85.56
26775;BME280;14362;51.902;7.626;2024-01-15T11:32:50;99471.47;;;1.03;85.62
26775;BME280;14362;51.902;7.626;2024-01-15T11:37:01;99478.38;;;1.03;85.66
26775;BME280;14362;51.902;7.626;2024-01-15T11:41:13;99455.97;;;0.94;85.19
26775;BME280;14362;51.902;7.626;2024-01-15T11:45:18;99453.34;;;1.06;85.27
26775;BME280;14362;51.902;7.626;2024-01-15T11:49:29;99470.56;;;1.17;84.89
26775;BME280;14362;51.902;7.626;2024-01-15T11:53:43;99466.22;;;1.20;84.47
26775;BME280;14362;51.902;7.626;2024-01-15T11:57:49;99453.97;;;1.50;85.09
26775;BME280;14362;51.902;7.626;2024-01-15T12:01:52;99458.19;;;1.67;84.23
26775;BME280;14362;51.902;7.626;2024-01-15T12:05:55;99455.69;;;1.54;83.05
26775;BME280;14362;51.902;7.626;2024-01-15T12:09:58;99443.63;;;1.45;83.66
26775;BME280;14362;51.902;7.626;2024-01-15T12:14:00;99472.16;;;1.41;83.37
26775;BME280;14362;51.902;7.626;2024-01-15T12:18:03;99469.63;;;1.36;82.87
26775;BME280;14362;51.902;7.626;2024-01-15T12:22:05;99464.41;;;1.39;83.03
26775;BME280;14362;51.902;7.626;2024-01-15T12:26:07;99462.69;;;1.38;82.32
26775;BME280;14362;51.902;7.626;2024-01-15T12:30:11;99465.28;;;1.41;83.18
26775;BME280;14362;51.902;7.626;2024-01-15T12:34:12;99461.00;;;1.29;84.09
26775;BME280;14362;51.902;7.626;2024-01-15T12:38:18;99467.06;;;1.27;83.67
26775;BME280;14362;51.902;7.626;2024-01-15T12:42:20;99470.56;;;1.20;84.05
26775;BME280;14362;51.902;7.626;2024-01-15T12:46:23;99473.16;;;1.20;84.07
26775;BME280;14362;51.902;7.626;2024-01-15T12:50:25;99474.00;;;1.17;84.29
26775;BME280;14362;51.902;7.626;2024-01-15T12:54:28;99474.88;;;1.16;84.46
26775;BME280;14362;51.902;7.626;2024-01-15T12:58:29;99466.22;;;1.22;83.66
26775;BME280;14362;51.902;7.626;2024-01-15T13:02:31;99472.25;;;1.27;83.99
26775;BME280;14362;51.902;7.626;2024-01-15T13:06:32;99466.19;;;1.28;82.81
26775;BME280;14362;51.902;7.626;2024-01-15T13:10:35;99475.66;;;1.41;83.08
26775;BME280;14362;51.902;7.626;2024-01-15T13:14:36;99466.06;;;1.54;83.30
26775;BME280;14362;51.902;7.626;2024-01-15T13:18:37;99472.19;;;1.44;83.29
26775;BME280;14362;51.902;7.626;2024-01-15T13:22:39;99483.47;;;1.34;83.98
26775;BME280;14362;51.902;7.626;2024-01-15T13:26:45;99486.06;;;1.32;84.35
26775;BME280;14362;51.902;7.626;2024-01-15T13:30:47;99491.19;;;1.44;84.33
26775;BME280;14362;51.902;7.626;2024-01-15T13:34:48;99481.72;;;1.39;84.55
26775;BME280;14362;51.902;7.626;2024-01-15T13:38:50;99495.56;;;1.36;85.02
26775;BME280;14362;51.902;7.626;2024-01-15T13:42:52;99498.19;;;1.24;84.89
26775;BME280;14362;51.902;7.626;2024-01-15T13:46:54;99505.97;;;1.24;85.46
26775;BME280;14362;51.902;7.626;2024-01-15T13:50:57;99515.47;;;1.25;85.38
26775;BME280;14362;51.902;7.626;2024-01-15T13:54:59;99516.38;;;1.13;84.83
26775;BME280;14362;51.902;7.626;2024-01-15T13:59:02;99514.66;;;1.07;84.15
26775;BME280;14362;51.902;7.626;2024-01-15T14:03:05;99524.16;;;1.05;84.46
26775;BME280;14362;51.902;7.626;2024-01-15T14:07:07;99518.97;;;1.08;84.07
26775;BME280;14362;51.902;7.626;2024-01-15T14:11:08;99505.16;;;1.08;83.78
26775;BME280;14362;51.902;7.626;2024-01-15T14:15:11;99513.78;;;1.14;83.41
26775;BME280;14362;51.902;7.626;2024-01-15T14:19:13;99523.25;;;1.19;83.59
26775;BME280;14362;51.902;7.626;2024-01-15T14:23:15;99530.19;;;1.17;82.76
26775;BME280;14362;51.902;7.626;2024-01-15T14:27:16;99541.41;;;1.17;82.03
26775;BME280;14362;51.902;7.626;2024-01-15T14:31:19;99561.28;;;1.13;81.99
26775;BME280;14362;51.902;7.626;2024-01-15T14:35:21;99557.00;;;0.97;82.94
26775;BME280;14362;51.902;7.626;2024-01-15T14:39:23;99573.44;;;0.80;84.18
26775;BME280;14362;51.902;7.626;2024-01-15T14:43:24;99579.50;;;0.73;84.96
26775;BME280;14362;51.902;7.626;2024-01-15T14:47:27;99592.44;;;0.65;86.08
26775;BME280;14362;51.902;7.626;2024-01-15T14:51:29;99599.34;;;0.67;86.88
26775;BME280;14362;51.902;7.626;2024-01-15T14:55:30;99602.78;;;0.67;86.98
26775;BME280;14362;51.902;7.626;2024-01-15T14:59:32;99603.66;;;0.64;87.44
26775;BME280;14362;51.902;7.626;2024-01-15T15:03:35;99613.16;;;0.65;87.80
26775;BME280;14362;51.902;7.626;2024-01-15T15:07:36;99610.56;;;0.65;87.90
26775;BME280;14362;51.902;7.626;2024-01-15T15:11:38;99609.69;;;0.62;87.78
26775;BME280;14362;51.902;7.626;2024-01-15T15:15:40;99622.66;;;0.59;87.93
26775;BME280;14362;51.902;7.626;2024-01-15T15:19:42;99633.03;;;0.56;88.37
26775;BME280;14362;51.902;7.626;2024-01-15T15:23:44;99632.13;;;0.49;88.55
26775;BME280;14362;51.902;7.626;2024-01-15T15:27:46;99623.50;;;0.39;88.37
26775;BME280;14362;51.902;7.626;2024-01-15T15:31:48;99639.03;;;0.31;89.28
26775;BME280;14362;51.902;7.626;2024-01-15T15:35:51;99655.38;;;0.26;89.04
26775;BME280;14362;51.902;7.626;2024-01-15T15:39:52;99668.31;;;0.18;89.09
26775;BME280;14362;51.902;7.626;2024-01-15T15:43:54;99678.63;;;0.10;89.71
26775;BME280;14362;51.902;7.626;2024-01-15T15:47:55;99680.34;;;0.01;89.53
26775;BME280;14362;51.902;7.626;2024-01-15T15:51:58;99681.16;;;-0.10;89.88
26775;BME280;14362;51.902;7.626;2024-01-15T15:56:00;99688.88;;;-0.16;89.73
26775;BME280;14362;51.902;7.626;2024-01-15T16:00:01;99700.06;;;-0.22;90.32
26775;BME280;14362;51.902;7.626;2024-01-15T16:04:03;99706.09;;;-0.26;90.19
26775;BME280;14362;51.902;7.626;2024-01-15T16:08:06;99710.38;;;-0.31;90.77
26775;BME280;14362;51.902;7.626;2024-01-15T16:12:07;99702.56;;;-0.34;90.36
26775;BME280;14362;51.902;7.626;2024-01-15T16:16:09;99712.06;;;-0.35;90.29
26775;BME280;14362;51.902;7.626;2024-01-15T16:20:10;99715.50;;;-0.39;90.27
26775;BME280;14362;51.902;7.626;2024-01-15T16:24:13;99723.25;;;-0.34;90.34
26775;BME280;14362;51.902;7.626;2024-01-15T16:28:15;99731.03;;;-0.32;90.11
26775;BME280;14362;51.902;7.626;2024-01-15T16:32:16;99735.38;;;-0.28;90.20
26775;BME280;14362;51.902;7.626;2024-01-15T16:36:18;99731.03;;;-0.36;89.67
26775;BME280;14362;51.902;7.626;2024-01-15T16:40:22;99743.09;;;-0.36;89.00
26775;BME280;14362;51.902;7.626;2024-01-15T16:44:23;99745.63;;;-0.42;89.19
26775;BME280;14362;51.902;7.626;2024-01-15T16:48:25;99741.31;;;-0.43;89.64
26775;BME280;14362;51.902;7.626;2024-01-15T16:52:26;99745.59;;;-0.45;89.11
26775;BME280;14362;51.902;7.626;2024-01-15T16:56:29;99744.72;;;-0.47;88.82
26775;BME280;14362;51.902;7.626;2024-01-15T17:00:30;99755.06;;;-0.49;88.87
26775;BME280;14362;51.902;7.626;2024-01-15T17:04:32;99765.38;;;-0.52;89.09
26775;BME280;14362;51.902;7.626;2024-01-15T17:08:33;99768.84;;;-0.50;88.83
26775;BME280;14362;51.902;7.626;2024-01-15T17:12:36;99779.19;;;-0.47;89.23
26775;BME280;14362;51.902;7.626;2024-01-15T17:16:38;99770.59;;;-0.43;88.19
26775;BME280;14362;51.902;7.626;2024-01-15T17:20:39;99768.00;;;-0.44;87.72
26775;BME280;14362;51.902;7.626;2024-01-15T17:24:44;99779.28;;;-0.36;88.12
26775;BME280;14362;51.902;7.626;2024-01-15T17:28:47;99780.19;;;-0.28;88.06
26775;BME280;14362;51.902;7.626;2024-01-15T17:32:48;99777.69;;;-0.17;87.56
26775;BME280;14362;51.902;7.626;2024-01-15T17:36:52;99769.97;;;-0.12;87.46
26775;BME280;14362;51.902;7.626;2024-01-15T17:40:54;99790.66;;;-0.14;87.19
26775;BME280;14362;51.902;7.626;2024-01-15T17:44:57;99780.31;;;-0.15;87.14
26775;BME280;14362;51.902;7.626;2024-01-15T17:48:58;99785.53;;;-0.05;87.71
26775;BME280;14362;51.902;7.626;2024-01-15T17:53:03;99790.66;;;-0.11;87.48
26775;BME280;14362;51.902;7.626;2024-01-15T17:57:04;99799.25;;;-0.17;88.05
26775;BME280;14362;51.902;7.626;2024-01-15T18:01:07;99806.16;;;-0.15;88.69
26775;BME280;14362;51.902;7.626;2024-01-15T18:05:09;99817.41;;;-0.10;88.96
26775;BME280;14362;51.902;7.626;2024-01-15T18:09:10;99816.53;;;-0.11;88.62
26775;BME280;14362;51.902;7.626;2024-01-15T18:13:12;99815.69;;;-0.10;88.93
26775;BME280;14362;51.902;7.626;2024-01-15T18:17:15;99815.69;;;-0.07;88.97
26775;BME280;14362;51.902;7.626;2024-01-15T18:21:18;99825.19;;;-0.04;88.32
26775;BME280;14362;51.902;7.626;2024-01-15T18:25:19;99819.22;;;0.00;88.17
26775;BME280;14362;51.902;7.626;2024-01-15T18:29:21;99832.22;;;0.14;87.76
26775;BME280;14362;51.902;7.626;2024-01-15T18:33:25;99831.34;;;0.12;87.55
26775;BME280;14362;51.902;7.626;2024-01-15T18:37:26;99833.94;;;0.18;87.32
26775;BME280;14362;51.902;7.626;2024-01-15T18:41:28;99857.28;;;0.23;86.13
26775;BME280;14362;51.902;7.626;2024-01-15T18:45:30;99856.47;;;0.31;85.16
26775;BME280;14362;51.902;7.626;2024-01-15T18:49:32;99859.06;;;0.33;85.03
26775;BME280;14362;51.902;7.626;2024-01-15T18:53:34;99878.03;;;0.32;85.19
26775;BME280;14362;51.902;7.626;2024-01-15T18:57:35;99885.81;;;0.33;84.61
26775;BME280;14362;51.902;7.626;2024-01-15T19:01:38;99891.00;;;0.33;84.84
26775;BME280;14362;51.902;7.626;2024-01-15T19:05:41;99895.31;;;0.35;85.17
26775;BME280;14362;51.902;7.626;2024-01-15T19:09:43;99905.69;;;0.36;85.32
26775;BME280;14362;51.902;7.626;2024-01-15T19:13:45;99921.25;;;0.39;84.74
26775;BME280;14362;51.902;7.626;2024-01-15T19:17:46;99925.59;;;0.45;84.54
26775;BME280;14362;51.902;7.626;2024-01-15T19:21:50;99923.91;;;0.47;84.93
26775;BME280;14362;51.902;7.626;2024-01-15T19:25:52;99924.75;;;0.44;84.84
26775;BME280;14362;51.902;7.626;2024-01-15T19:29:54;99924.75;;;0.43;85.06
26775;BME280;14362;51.902;7.626;2024-01-15T19:33:55;99934.25;;;0.47;85.27
26775;BME280;14362;51.902;7.626;2024-01-15T19:37:58;99937.69;;;0.43;85.09
26775;BME280;14362;51.902;7.626;2024-01-15T19:41:59;99939.41;;;0.44;84.87
26775;BME280;14362;51.902;7.626;2024-01-15T19:46:03;99948.94;;;0.48;84.39
26775;BME280;14362;51.902;7.626;2024-01-15T19:50:05;99937.69;;;0.44;84.90
26775;BME280;14362;51.902;7.626;2024-01-15T19:54:08;99941.94;;;0.36;85.00
26775;BME280;14362;51.902;7.626;2024-01-15T19:58:10;99948.00;;;0.37;85.77
26775;BME280;14362;51.902;7.626;2024-01-15T20:02:13;99960.09;;;0.39;85.24
26775;BME280;14362;51.902;7.626;2024-01-15T20:06:15;99958.31;;;0.32;85.61
26775;BME280;14362;51.902;7.626;2024-01-15T20:10:18;99973.84;;;0.32;85.54
26775;BME280;14362;51.902;7.626;2024-01-15T20:14:20;99983.28;;;0.27;86.04
26775;BME280;14362;51.902;7.626;2024-01-15T20:18:24;100005.75;;;0.28;85.24
26775;BME280;14362;51.902;7.626;2024-01-15T20:22:26;100007.47;;;0.27;85.80
26775;BME280;14362;51.902;7.626;2024-01-15T20:26:29;100011.81;;;0.31;84.80
26775;BME280;14362;51.902;7.626;2024-01-15T20:30:30;100008.31;;;0.26;84.79
26775;BME280;14362;51.902;7.626;2024-01-15T20:34:31;100010.88;;;0.23;84.78
26775;BME280;14362;51.902;7.626;2024-01-15T20:38:33;100012.53;;;0.18;84.63
26775;BME280;14362;51.902;7.626;2024-01-15T20:42:37;100021.19;;;0.17;85.00
26775;BME280;14362;51.902;7.626;2024-01-15T20:46:39;100015.97;;;0.14;84.99
26775;BME280;14362;51.902;7.626;2024-01-15T20:50:40;100025.38;;;0.04;84.93
26775;BME280;14362;51.902;7.626;2024-01-15T20:54:42;100025.34;;;0.03;85.86
26775;BME280;14362;51.902;7.626;2024-01-15T20:58:45;100041.78;;;0.06;85.46
26775;BME280;14362;51.902;7.626;2024-01-15T21:02:46;100040.09;;;0.10;86.21
26775;BME280;14362;51.902;7.626;2024-01-15T21:06:48;100036.69;;;0.15;86.32
26775;BME280;14362;51.902;7.626;2024-01-15T21:10:50;100053.94;;;0.13;85.76
26775;BME280;14362;51.902;7.626;2024-01-15T21:14:54;100053.88;;;0.10;85.51
26775;BME280;14362;51.902;7.626;2024-01-15T21:18:55;100063.38;;;0.11;85.77
26775;BME280;14362;51.902;7.626;2024-01-15T21:22:57;100066.88;;;0.13;85.57
26775;BME280;14362;51.902;7.626;2024-01-15T21:26:59;100064.28;;;0.15;85.26
26775;BME280;14362;51.902;7.626;2024-01-15T21:31:02;100066.03;;;0.14;85.11
26775;BME280;14362;51.902;7.626;2024-01-15T21:35:04;100070.31;;;0.14;85.39